Dan L — WDG4449 — position and weather

sailwx.info

Track history (hours):
 
Tides and Currents Weather Stations Pressure Air Temp Water Temp Dewpoint Dewpoint Depression Visibility Wind Speed Wind Dir Waves Ship Positions

Dan L

Owner: Enterprise Marine Services, LLC, San Antonio, TX. More information available from US FCC via Universal Licensing System and Coast Guard Vessel Documentation Center.

Last reported at 2017-Dec-11 16:37 UTC. Time now 2017-Dec-13 05:15 UTC.
Position N 30°02' W 094°02'.

Length 34 m; draft 3 m.

Type: Tug. MMSI: 367536660.

Date/timePositionNaut miles runAvg speedWind from/ knotsBaromVisibWave heightAir tempDewpointWater temp
2017-Dec-11 16:37N 30°02' W 094°02'0 0.0
2017-Dec-11 14:22N 30°02' W 094°02'0 0.0
2017-Dec-11 13:55N 30°02' W 094°02'0 0.0
2017-Dec-11 12:25N 30°02' W 094°02'0 0.0
2017-Dec-11 11:55N 30°02' W 094°02'17 0.4
2017-Dec-09 17:35N 30°03' W 093°43'1 5.9
2017-Dec-09 17:24N 30°04' W 093°42'2 6.1
2017-Dec-09 17:01N 30°04' W 093°39'3 5.5
2017-Dec-09 16:30N 30°04' W 093°36'2 4.9
2017-Dec-09 16:00N 30°04' W 093°33'2 4.9
2017-Dec-09 15:30N 30°04' W 093°30'2 4.9
2017-Dec-09 15:01N 30°04' W 093°27'2 4.9
2017-Dec-09 14:31N 30°04' W 093°24'2 4.6
2017-Dec-09 14:01N 30°04' W 093°22'1 2.4
2017-Dec-09 13:31N 30°04' W 093°21'2 3.1
2017-Dec-09 13:00N 30°06' W 093°19'2 3.3
2017-Dec-09 12:31N 30°05' W 093°18'1 2.9
2017-Dec-09 12:01N 30°04' W 093°16'0 0.5
2017-Dec-09 11:30N 30°04' W 093°16'0 0.0
2017-Dec-09 11:00N 30°04' W 093°16'0 0.0
2017-Dec-09 10:30N 30°04' W 093°16'0 0.1
2017-Dec-09 10:01N 30°04' W 093°16'0 0.9
2017-Dec-09 09:30N 30°04' W 093°16'1 2.6
2017-Dec-09 09:01N 30°02' W 093°16'2 4.6
2017-Dec-09 08:30N 30°01' W 093°14'2 4.5
2017-Dec-09 08:00N 29°59' W 093°12'3 5.2
2017-Dec-09 07:30N 29°57' W 093°10'2 4.5
2017-Dec-09 07:00N 29°56' W 093°08'3 5.0
2017-Dec-09 06:30N 29°56' W 093°05'36 4.7
2017-Dec-08 22:52N 29°53' W 092°23'2 4.7
2017-Dec-08 22:20N 29°51' W 092°22'2 4.6
2017-Dec-08 22:01N 29°51' W 092°20'2 3.9
2017-Dec-08 21:31N 29°50' W 092°18'2 4.5
2017-Dec-08 21:01N 29°49' W 092°16'2 4.9
2017-Dec-08 20:31N 29°48' W 092°13'2 4.4
2017-Dec-08 20:00N 29°47' W 092°11'0 0.4
2017-Dec-08 19:31N 29°47' W 092°11'0 1.0
2017-Dec-08 19:01N 29°47' W 092°10'1 2.2
2017-Dec-08 18:31N 29°47' W 092°09'1 1.9
2017-Dec-08 18:01N 29°47' W 092°08'1 2.6
2017-Dec-08 17:31N 29°48' W 092°07'0 0.0
2017-Dec-08 17:01N 29°48' W 092°07'0 0.0
2017-Dec-08 16:31N 29°48' W 092°07'0 0.0
2017-Dec-08 16:01N 29°48' W 092°07'1 1.1
2017-Dec-08 15:31N 29°48' W 092°06'1 2.4
2017-Dec-08 15:00N 29°48' W 092°05'2 3.7
2017-Dec-08 14:30N 29°49' W 092°03'2 4.0
2017-Dec-08 14:00N 29°50' W 092°01'2 3.8
2017-Dec-08 13:28N 29°50' W 091°58'2 4.3
2017-Dec-08 12:58N 29°51' W 091°56'  
2017-Dec-02 19:24N 31°60' W 091°05'4 9.2
2017-Dec-02 19:00N 32°03' W 091°03'4 8.4
2017-Dec-02 18:30N 32°06' W 091°06'3 5.2
2017-Dec-02 18:01N 32°07' W 091°03'4 7.0
2017-Dec-02 17:30N 32°10' W 091°00'5 9.2
2017-Dec-02 17:00N 32°14' W 090°59'4 8.8
2017-Dec-02 16:30N 32°18' W 090°56'3 6.4
2017-Dec-02 16:00N 32°21' W 090°55'4 8.1
2017-Dec-02 15:30N 32°21' W 091°00'4 7.4
2017-Dec-02 15:00N 32°25' W 091°00'4 8.7
2017-Dec-02 14:30N 32°27' W 091°05'4 7.8
2017-Dec-02 13:59N 32°31' W 091°07'4 8.1
2017-Dec-02 13:29N 32°35' W 091°07'5 8.5
2017-Dec-02 12:56N 32°39' W 091°09'4 8.5
2017-Dec-02 12:27N 32°41' W 091°04'3 6.8
2017-Dec-02 12:00N 32°44' W 091°04'  
Track history (hours):
 
Tides and Currents Weather Stations Pressure Air Temp Water Temp Dewpoint Dewpoint Depression Visibility Wind Speed Wind Dir Waves Ship Positions

Dan L

Owner: Enterprise Marine Services, LLC, San Antonio, TX. More information available from US FCC via Universal Licensing System and Coast Guard Vessel Documentation Center.

Last reported at 2017-Dec-11 16:37 UTC. Time now 2017-Dec-13 05:15 UTC.
Position N 30°02' W 094°02'.

Length 34 m; draft 3 m.

Type: Tug. MMSI: 367536660.

Date/timePositionNaut miles runAvg speedWind from/ knotsBaromVisibWave heightAir tempDewpointWater temp
2017-Dec-11 16:37N 30°02' W 094°02'0 0.0
2017-Dec-11 14:22N 30°02' W 094°02'0 0.0
2017-Dec-11 13:55N 30°02' W 094°02'0 0.0
2017-Dec-11 12:25N 30°02' W 094°02'0 0.0
2017-Dec-11 11:55N 30°02' W 094°02'17 0.4
2017-Dec-09 17:35N 30°03' W 093°43'1 5.9
2017-Dec-09 17:24N 30°04' W 093°42'2 6.1
2017-Dec-09 17:01N 30°04' W 093°39'3 5.5
2017-Dec-09 16:30N 30°04' W 093°36'2 4.9
2017-Dec-09 16:00N 30°04' W 093°33'2 4.9
2017-Dec-09 15:30N 30°04' W 093°30'2 4.9
2017-Dec-09 15:01N 30°04' W 093°27'2 4.9
2017-Dec-09 14:31N 30°04' W 093°24'2 4.6
2017-Dec-09 14:01N 30°04' W 093°22'1 2.4
2017-Dec-09 13:31N 30°04' W 093°21'2 3.1
2017-Dec-09 13:00N 30°06' W 093°19'2 3.3
2017-Dec-09 12:31N 30°05' W 093°18'1 2.9
2017-Dec-09 12:01N 30°04' W 093°16'0 0.5
2017-Dec-09 11:30N 30°04' W 093°16'0 0.0
2017-Dec-09 11:00N 30°04' W 093°16'0 0.0
2017-Dec-09 10:30N 30°04' W 093°16'0 0.1
2017-Dec-09 10:01N 30°04' W 093°16'0 0.9
2017-Dec-09 09:30N 30°04' W 093°16'1 2.6
2017-Dec-09 09:01N 30°02' W 093°16'2 4.6
2017-Dec-09 08:30N 30°01' W 093°14'2 4.5
2017-Dec-09 08:00N 29°59' W 093°12'3 5.2
2017-Dec-09 07:30N 29°57' W 093°10'2 4.5
2017-Dec-09 07:00N 29°56' W 093°08'3 5.0
2017-Dec-09 06:30N 29°56' W 093°05'36 4.7
2017-Dec-08 22:52N 29°53' W 092°23'2 4.7
2017-Dec-08 22:20N 29°51' W 092°22'2 4.6
2017-Dec-08 22:01N 29°51' W 092°20'2 3.9
2017-Dec-08 21:31N 29°50' W 092°18'2 4.5
2017-Dec-08 21:01N 29°49' W 092°16'2 4.9
2017-Dec-08 20:31N 29°48' W 092°13'2 4.4
2017-Dec-08 20:00N 29°47' W 092°11'0 0.4
2017-Dec-08 19:31N 29°47' W 092°11'0 1.0
2017-Dec-08 19:01N 29°47' W 092°10'1 2.2
2017-Dec-08 18:31N 29°47' W 092°09'1 1.9
2017-Dec-08 18:01N 29°47' W 092°08'1 2.6
2017-Dec-08 17:31N 29°48' W 092°07'0 0.0
2017-Dec-08 17:01N 29°48' W 092°07'0 0.0
2017-Dec-08 16:31N 29°48' W 092°07'0 0.0
2017-Dec-08 16:01N 29°48' W 092°07'1 1.1
2017-Dec-08 15:31N 29°48' W 092°06'1 2.4
2017-Dec-08 15:00N 29°48' W 092°05'2 3.7
2017-Dec-08 14:30N 29°49' W 092°03'2 4.0
2017-Dec-08 14:00N 29°50' W 092°01'2 3.8
2017-Dec-08 13:28N 29°50' W 091°58'2 4.3
2017-Dec-08 12:58N 29°51' W 091°56'  
2017-Dec-02 19:24N 31°60' W 091°05'4 9.2
2017-Dec-02 19:00N 32°03' W 091°03'4 8.4
2017-Dec-02 18:30N 32°06' W 091°06'3 5.2
2017-Dec-02 18:01N 32°07' W 091°03'4 7.0
2017-Dec-02 17:30N 32°10' W 091°00'5 9.2
2017-Dec-02 17:00N 32°14' W 090°59'4 8.8
2017-Dec-02 16:30N 32°18' W 090°56'3 6.4
2017-Dec-02 16:00N 32°21' W 090°55'4 8.1
2017-Dec-02 15:30N 32°21' W 091°00'4 7.4
2017-Dec-02 15:00N 32°25' W 091°00'4 8.7
2017-Dec-02 14:30N 32°27' W 091°05'4 7.8
2017-Dec-02 13:59N 32°31' W 091°07'4 8.1
2017-Dec-02 13:29N 32°35' W 091°07'5 8.5
2017-Dec-02 12:56N 32°39' W 091°09'4 8.5
2017-Dec-02 12:27N 32°41' W 091°04'3 6.8
2017-Dec-02 12:00N 32°44' W 091°04'  

Dump ship's entire track history